Time;durP1;ratioP1;P1;durP2;ratioP2;P2;SDS_P1;SDS_P2;PMS_P1;PMS_P2;Temp;Humidity;BMP_temperature;BMP_pressure;BME280_temperature;BME280_humidity;BME280_pressure;Samples;Min_cycle;Max_cycle;Signal;HPM_P1;HPM_P2
2021/01/22 00:02:27;;;;;;;0.30;0.30;;;12.00;69.10;;;;;;6202115;28;20471;-80
2021/01/22 00:05:28;;;;;;;6.47;0.75;;;11.90;68.90;;;;;;6204411;28;20150;-80
2021/01/22 00:08:30;;;;;;;0.20;0.20;;;11.90;68.80;;;;;;6207797;28;20100;-80
2021/01/22 00:11:31;;;;;;;0.68;0.50;;;12.00;69.10;;;;;;6206890;28;20042;-81
2021/01/22 00:14:33;;;;;;;1.25;0.55;;;11.90;69.10;;;;;;6206110;28;20100;-79
2021/01/22 00:17:34;;;;;;;1.70;0.55;;;11.90;69.60;;;;;;6206337;28;20085;-80
2021/01/22 00:20:36;;;;;;;2.35;0.68;;;11.90;70.00;;;;;;6206024;28;20567;-80
2021/01/22 00:23:37;;;;;;;0.40;0.40;;;11.90;70.40;;;;;;6205151;28;20496;-80
2021/01/22 00:26:39;;;;;;;0.60;0.60;;;11.90;70.70;;;;;;6205417;28;20054;-80
2021/01/22 00:29:41;;;;;;;0.40;0.40;;;11.90;72.60;;;;;;6206697;28;20065;-80
2021/01/22 00:32:42;;;;;;;2.67;0.47;;;11.80;73.30;;;;;;6205500;28;20418;-80
2021/01/22 00:35:44;;;;;;;1.27;0.90;;;11.70;75.00;;;;;;6205431;28;20071;-81
2021/01/22 00:38:45;;;;;;;3.60;1.10;;;11.50;77.70;;;;;;6205236;28;20065;-80
2021/01/22 00:41:46;;;;;;;1.00;0.75;;;11.30;80.00;;;;;;6206039;28;20116;-81
2021/01/22 00:44:48;;;;;;;0.98;0.88;;;10.90;82.80;;;;;;6206336;28;20062;-80
2021/01/22 00:47:50;;;;;;;0.68;0.50;;;10.60;84.90;;;;;;6205230;28;20056;-81
2021/01/22 00:50:51;;;;;;;0.63;0.63;;;10.30;86.70;;;;;;6204742;28;20081;-80
2021/01/22 00:53:53;;;;;;;0.50;0.50;;;10.10;88.50;;;;;;6206117;28;20047;-80
2021/01/22 00:56:54;;;;;;;1.17;0.75;;;9.80;90.00;;;;;;6206817;28;20074;-80
2021/01/22 00:59:56;;;;;;;1.00;0.90;;;9.60;90.60;;;;;;6206768;28;20050;-80
2021/01/22 01:02:58;;;;;;;2.33;1.08;;;9.50;91.10;;;;;;6206182;28;20050;-80
2021/01/22 01:05:59;;;;;;;0.98;0.75;;;9.50;91.40;;;;;;6206359;28;20492;-80
2021/01/22 01:09:00;;;;;;;1.23;1.13;;;9.50;91.60;;;;;;6206486;28;20111;-81
2021/01/22 01:12:01;;;;;;;1.63;1.42;;;9.50;91.70;;;;;;6205700;28;20133;-80
2021/01/22 01:15:16;;;;;;;2.22;0.80;;;9.50;91.80;;;;;;6205249;28;20058;-80
2021/01/22 01:18:17;;;;;;;2.47;0.85;;;9.60;91.60;;;;;;6203857;28;20070;-79
2021/01/22 01:21:19;;;;;;;1.63;1.13;;;9.80;93.50;;;;;;6205643;28;20046;-80
2021/01/22 01:24:20;;;;;;;0.75;0.68;;;9.80;90.50;;;;;;6204898;28;20062;-80
2021/01/22 01:27:21;;;;;;;1.30;1.08;;;10.00;89.30;;;;;;6205171;28;20073;-80
2021/01/22 01:30:24;;;;;;;1.35;0.82;;;10.20;87.50;;;;;;6204320;28;20042;-80
2021/01/22 01:33:25;;;;;;;1.73;0.60;;;10.30;85.20;;;;;;6206474;28;20057;-79
2021/01/22 01:36:26;;;;;;;1.42;0.85;;;10.50;84.30;;;;;;6206797;28;20074;-79
2021/01/22 01:39:28;;;;;;;1.73;0.68;;;10.60;82.70;;;;;;6205835;28;20140;-80
2021/01/22 01:42:29;;;;;;;3.50;3.28;;;10.70;81.10;;;;;;6204975;28;20046;-80
2021/01/22 01:45:33;;;;;;;3.08;1.05;;;10.80;80.30;;;;;;6206897;28;20058;-80
2021/01/22 01:48:34;;;;;;;5.40;2.20;;;11.00;79.00;;;;;;6207222;28;20047;-80
2021/01/22 01:51:35;;;;;;;1.35;1.02;;;11.10;77.80;;;;;;6207968;28;20050;-79
2021/01/22 01:54:38;;;;;;;1.05;0.98;;;11.10;77.40;;;;;;6208049;28;20050;-79
2021/01/22 01:57:40;;;;;;;1.27;0.80;;;11.20;76.20;;;;;;6204320;28;20141;-79
2021/01/22 02:00:42;;;;;;;3.83;0.80;;;11.20;75.70;;;;;;6200946;28;20072;-80
2021/01/22 02:03:44;;;;;;;2.42;1.30;;;11.20;75.40;;;;;;6202613;28;20771;-80
2021/01/22 02:06:45;;;;;;;3.28;0.80;;;11.30;75.00;;;;;;6202273;28;20097;-80
2021/01/22 02:09:46;;;;;;;1.75;0.80;;;11.50;73.50;;;;;;6201693;28;20124;-80
2021/01/22 02:24:41;;;;;;;4.43;1.25;;;12.00;69.30;;;;;;6223543;23;20408;-76
2021/01/22 02:27:43;;;;;;;2.83;0.82;;;12.10;68.40;;;;;;6198019;28;20523;-76
2021/01/22 02:30:46;;;;;;;2.40;1.27;;;12.10;67.80;;;;;;6189528;28;20126;-76
2021/01/22 02:33:50;;;;;;;3.35;0.70;;;12.20;67.20;;;;;;6174935;28;20066;-76
2021/01/22 02:36:56;;;;;;;1.30;1.20;;;12.20;67.00;;;;;;6198802;28;20141;-76
2021/01/22 02:39:58;;;;;;;4.25;1.10;;;12.20;66.60;;;;;;6198199;28;20108;-76
2021/01/22 02:43:02;;;;;;;2.13;0.93;;;12.20;66.40;;;;;;6198230;28;20065;-76
2021/01/22 02:46:05;;;;;;;4.00;1.08;;;12.20;66.50;;;;;;6198040;28;20484;-76
2021/01/22 02:49:06;;;;;;;2.65;0.95;;;12.20;66.00;;;;;;6198499;28;20141;-76
2021/01/22 02:52:08;;;;;;;4.15;1.30;;;12.30;65.40;;;;;;6197821;28;20042;-75
2021/01/22 02:55:11;;;;;;;1.30;1.00;;;12.30;65.30;;;;;;6197793;28;20125;-76
2021/01/22 02:58:21;;;;;;;2.13;0.88;;;12.30;65.20;;;;;;6197996;28;20057;-76
2021/01/22 03:01:27;;;;;;;6.43;0.90;;;12.30;64.90;;;;;;6198186;28;20047;-76
2021/01/22 03:04:29;;;;;;;4.90;1.83;;;12.30;64.40;;;;;;6197908;28;20050;-75
2021/01/22 03:07:37;;;;;;;5.15;1.00;;;12.30;64.90;;;;;;6197993;28;20510;-77
2021/01/22 03:10:39;;;;;;;5.15;1.20;;;12.30;64.80;;;;;;6197348;28;20044;-76
2021/01/22 03:13:43;;;;;;;2.80;1.20;;;12.30;64.50;;;;;;6198402;28;20510;-76
2021/01/22 03:16:45;;;;;;;4.55;1.50;;;;;;;;;;6198033;28;20112;-76
2021/01/22 03:19:48;;;;;;;2.60;1.52;;;12.30;64.10;;;;;;6197472;28;20058;-76
2021/01/22 03:22:49;;;;;;;3.53;1.15;;;12.30;64.40;;;;;;6197792;28;20546;-77
2021/01/22 03:25:50;;;;;;;2.90;1.00;;;12.30;64.30;;;;;;6197761;28;20050;-77
2021/01/22 03:28:53;;;;;;;7.03;1.73;;;12.30;64.30;;;;;;6198220;28;20089;-77
2021/01/22 03:31:54;;;;;;;3.70;1.25;;;12.30;64.50;;;;;;6197284;28;20123;-76
2021/01/22 03:34:55;;;;;;;5.70;1.20;;;12.30;64.70;;;;;;6197730;28;20049;-77
2021/01/22 03:37:57;;;;;;;3.72;1.45;;;12.20;64.60;;;;;;6197331;28;20065;-76
2021/01/22 03:40:59;;;;;;;2.88;1.63;;;12.20;64.60;;;;;;6200437;28;20141;-77
2021/01/22 03:44:01;;;;;;;2.83;1.00;;;12.20;64.40;;;;;;6202245;28;20046;-77
2021/01/22 03:47:02;;;;;;;4.25;1.20;;;12.30;64.50;;;;;;6202434;28;20046;-77
2021/01/22 03:50:05;;;;;;;4.47;1.48;;;12.30;64.40;;;;;;6201571;28;20050;-77
2021/01/22 03:53:06;;;;;;;1.92;1.02;;;12.30;64.40;;;;;;6202718;28;20498;-77
2021/01/22 03:56:07;;;;;;;2.88;1.10;;;12.30;64.10;;;;;;6202302;28;20077;-77
2021/01/22 03:59:09;;;;;;;2.00;1.00;;;12.30;64.30;;;;;;6202157;28;20043;-77
2021/01/22 04:02:12;;;;;;;3.50;1.15;;;12.30;64.60;;;;;;6201896;28;20042;-77
2021/01/22 04:05:14;;;;;;;2.03;0.77;;;12.30;64.70;;;;;;6202695;28;20078;-74
2021/01/22 04:08:15;;;;;;;2.70;1.02;;;12.30;64.60;;;;;;6201970;28;20057;-77
2021/01/22 04:11:17;;;;;;;3.00;1.00;;;12.20;65.00;;;;;;6201361;28;20050;-77
2021/01/22 04:14:19;;;;;;;5.70;1.45;;;12.10;64.90;;;;;;6201985;28;20046;-77
2021/01/22 04:17:20;;;;;;;3.03;0.98;;;12.20;65.00;;;;;;6202304;28;20050;-76
2021/01/22 04:20:22;;;;;;;3.47;1.40;;;12.20;64.90;;;;;;6201533;28;20081;-77
2021/01/22 04:23:23;;;;;;;3.05;1.25;;;12.10;65.00;;;;;;6201352;28;20054;-77
2021/01/22 04:26:24;;;;;;;4.90;1.23;;;12.20;65.20;;;;;;6201323;28;20049;-76
2021/01/22 04:29:26;;;;;;;4.13;1.40;;;12.20;65.00;;;;;;6201577;28;20053;-77
2021/01/22 04:32:28;;;;;;;1.10;0.68;;;12.20;65.00;;;;;;6200969;28;20518;-77
2021/01/22 04:35:29;;;;;;;1.73;0.95;;;12.20;65.00;;;;;;6201163;28;20061;-76
2021/01/22 04:38:30;;;;;;;2.47;0.90;;;12.10;65.00;;;;;;6201006;28;20053;-77
2021/01/22 04:41:32;;;;;;;1.70;0.80;;;12.20;64.90;;;;;;6201555;28;20051;-76
2021/01/22 04:44:35;;;;;;;2.08;0.95;;;12.20;64.80;;;;;;6200863;28;20100;-76
2021/01/22 04:47:37;;;;;;;2.38;1.67;;;12.20;64.80;;;;;;6200821;28;20542;-77
2021/01/22 04:50:40;;;;;;;3.67;1.38;;;12.20;64.70;;;;;;6200448;28;20050;-76
2021/01/22 04:53:46;;;;;;;7.65;1.27;;;12.20;64.70;;;;;;6200609;28;20061;-75
2021/01/22 04:56:49;;;;;;;0.88;0.70;;;12.20;64.60;;;;;;6200796;28;20416;-76
2021/01/22 04:59:52;;;;;;;2.22;1.05;;;12.20;64.90;;;;;;6200399;28;20054;-77
2021/01/22 05:02:54;;;;;;;3.90;1.52;;;12.10;64.90;;;;;;6200734;28;20081;-76
2021/01/22 05:05:57;;;;;;;1.50;0.80;;;12.20;64.70;;;;;;6206057;28;20050;-77
2021/01/22 05:08:59;;;;;;;2.78;0.98;;;12.20;64.50;;;;;;6201862;28;20056;-75
2021/01/22 05:12:01;;;;;;;1.48;1.02;;;12.20;64.40;;;;;;6200055;28;20042;-77
2021/01/22 05:15:17;;;;;;;5.85;2.15;;;12.20;64.40;;;;;;6200976;28;20101;-76
2021/01/22 05:18:18;;;;;;;7.25;1.00;;;12.30;65.20;;;;;;6204613;28;20049;-76
2021/01/22 05:21:20;;;;;;;3.30;0.88;;;12.20;64.90;;;;;;6206246;28;20047;-76
2021/01/22 05:24:23;;;;;;;1.52;0.85;;;12.20;64.90;;;;;;6200416;28;20054;-76
2021/01/22 05:27:24;;;;;;;1.17;1.08;;;12.30;65.00;;;;;;6200251;28;20400;-76
2021/01/22 05:30:30;;;;;;;6.38;1.20;;;12.20;64.90;;;;;;6199936;28;20105;-76
2021/01/22 05:33:31;;;;;;;4.88;1.50;;;12.20;67.50;;;;;;6200653;28;20058;-76
2021/01/22 05:36:33;;;;;;;4.35;1.25;;;12.00;68.40;;;;;;6199426;28;20073;-76
2021/01/22 05:39:34;;;;;;;1.42;0.90;;;12.00;67.30;;;;;;6199889;28;20393;-76
2021/01/22 05:42:45;;;;;;;3.35;1.80;;;12.00;67.20;;;;;;6199087;28;20132;-76
2021/01/22 05:45:48;;;;;;;4.20;1.40;;;12.00;67.10;;;;;;6199605;28;20096;-76
2021/01/22 05:49:06;;;;;;;3.03;1.10;;;12.00;67.10;;;;;;6199883;28;20062;-76
2021/01/22 05:52:20;;;;;;;3.55;0.80;;;12.10;67.20;;;;;;6199245;28;20047;-75
2021/01/22 05:55:23;;;;;;;2.22;0.70;;;12.10;66.90;;;;;;6199430;28;20046;-77
2021/01/22 05:58:29;;;;;;;4.63;1.30;;;12.10;67.40;;;;;;6199602;28;20038;-76
2021/01/22 06:01:31;;;;;;;1.92;0.60;;;12.10;67.90;;;;;;6199487;28;20560;-77
2021/01/22 06:04:32;;;;;;;4.68;1.27;;;12.10;68.50;;;;;;6199281;28;20130;-77
2021/01/22 06:07:34;;;;;;;1.95;1.08;;;12.00;69.00;;;;;;6198949;28;20057;-77
2021/01/22 06:10:39;;;;;;;3.22;1.23;;;11.90;69.80;;;;;;6198809;28;20133;-77
2021/01/22 06:13:44;;;;;;;3.80;1.77;;;11.90;70.60;;;;;;6199778;28;20073;-77
2021/01/22 06:16:50;;;;;;;2.38;1.23;;;11.80;71.00;;;;;;6199156;28;20055;-77
2021/01/22 06:19:53;;;;;;;1.80;0.85;;;11.70;71.30;;;;;;6198435;28;20133;-77
2021/01/22 06:23:05;;;;;;;1.02;0.85;;;11.70;70.60;;;;;;6198833;28;20046;-76
2021/01/22 06:26:07;;;;;;;3.83;1.48;;;11.70;70.00;;;;;;6198544;28;20104;-77
2021/01/22 06:29:10;;;;;;;1.58;0.88;;;11.70;69.00;;;;;;6199084;28;20101;-77
2021/01/22 06:32:14;;;;;;;3.80;1.27;;;11.80;68.60;;;;;;6198584;28;20042;-77
2021/01/22 06:35:16;;;;;;;3.22;2.85;;;11.90;68.20;;;;;;6199197;28;20046;-77
2021/01/22 06:38:22;;;;;;;3.13;1.13;;;12.00;67.70;;;;;;6199526;28;20089;-77
2021/01/22 06:41:26;;;;;;;2.45;0.90;;;12.00;67.30;;;;;;6199067;28;20097;-77
2021/01/22 06:44:27;;;;;;;3.67;1.17;;;12.00;66.90;;;;;;6198758;28;20054;-77
2021/01/22 06:47:29;;;;;;;2.95;1.27;;;12.10;66.40;;;;;;6198976;28;20104;-77
2021/01/22 06:50:31;;;;;;;6.75;2.50;;;12.10;66.20;;;;;;6198018;28;20411;-77
2021/01/22 06:53:32;;;;;;;4.13;0.98;;;12.20;65.40;;;;;;6199290;28;20050;-77
2021/01/22 06:56:35;;;;;;;3.60;1.30;;;12.20;65.00;;;;;;6198334;28;20070;-77
2021/01/22 06:59:37;;;;;;;1.98;0.80;;;12.30;64.30;;;;;;6198535;28;20054;-77
2021/01/22 07:02:41;;;;;;;7.18;1.27;;;12.40;64.20;;;;;;6198080;28;20060;-77
2021/01/22 07:05:44;;;;;;;5.85;1.52;;;12.40;64.00;;;;;;6189328;28;20056;-77
2021/01/22 07:08:55;;;;;;;5.82;3.15;;;12.40;63.90;;;;;;6194733;28;20051;-77
2021/01/22 07:11:58;;;;;;;2.95;1.10;;;12.40;63.20;;;;;;6173644;28;20105;-77
2021/01/22 07:14:59;;;;;;;5.15;1.83;;;12.50;62.40;;;;;;6197917;28;20106;-77
2021/01/22 07:18:02;;;;;;;6.00;1.30;;;12.50;62.00;;;;;;6206217;28;20054;-77
2021/01/22 07:21:20;;;;;;;3.20;1.42;;;12.60;61.60;;;;;;6206067;28;20507;-78
2021/01/22 07:24:21;;;;;;;5.32;0.90;;;12.70;61.30;;;;;;6182019;28;20504;-77
2021/01/22 07:27:22;;;;;;;3.97;1.88;;;12.70;60.90;;;;;;6181856;28;20053;-77
2021/01/22 07:30:36;;;;;;;2.25;1.10;;;12.70;60.80;;;;;;6182575;28;20445;-77
2021/01/22 07:33:39;;;;;;;4.40;1.60;;;12.70;60.60;;;;;;6183636;28;20047;-77
2021/01/22 07:36:49;;;;;;;4.47;1.33;;;;;;;;;;6182214;28;20125;-76
2021/01/22 07:39:52;;;;;;;1.60;1.17;;;12.80;59.80;;;;;;6195806;28;20050;-77
2021/01/22 07:42:54;;;;;;;5.22;1.30;;;12.80;59.60;;;;;;6205970;28;20133;-77
2021/01/22 07:46:17;;;;;;;2.45;1.33;;;12.90;59.50;;;;;;6206356;28;20393;-76
2021/01/22 07:49:20;;;;;;;3.40;1.30;;;12.90;59.50;;;;;;6206194;28;20057;-77
2021/01/22 07:52:21;;;;;;;3.13;1.40;;;12.90;59.20;;;;;;6205289;28;20611;-76
2021/01/22 07:55:24;;;;;;;4.47;1.20;;;12.90;58.90;;;;;;6205734;28;20054;-77
2021/01/22 07:58:25;;;;;;;3.88;1.38;;;12.90;58.90;;;;;;6205978;28;20544;-77
2021/01/22 08:01:26;;;;;;;3.00;1.35;;;13.00;59.20;;;;;;6206343;28;20137;-77
2021/01/22 08:04:29;;;;;;;2.33;1.27;;;13.00;58.90;;;;;;6205744;28;20054;-77
2021/01/22 08:07:34;;;;;;;7.35;1.50;;;13.00;58.40;;;;;;6206437;28;20050;-77
2021/01/22 08:10:35;;;;;;;8.95;1.58;;;13.00;58.40;;;;;;6205098;28;20503;-77
2021/01/22 08:13:43;;;;;;;11.18;1.83;;;13.00;58.30;;;;;;6194865;28;20141;-76
2021/01/22 08:16:45;;;;;;;8.23;1.95;;;13.10;58.30;;;;;;6181209;28;20058;-77
2021/01/22 08:19:49;;;;;;;6.82;1.70;;;13.10;57.60;;;;;;6181274;28;20627;-76
2021/01/22 08:22:53;;;;;;;6.93;1.35;;;13.10;57.50;;;;;;6181315;28;20054;-76
2021/01/22 08:25:58;;;;;;;6.32;1.58;;;13.20;60.60;;;;;;6178580;28;20534;-77
2021/01/22 08:29:00;;;;;;;2.85;2.08;;;13.20;57.60;;;;;;6181628;28;20051;-78
2021/01/22 08:32:03;;;;;;;4.68;1.50;;;13.20;57.70;;;;;;6181473;28;20137;-77
2021/01/22 08:35:10;;;;;;;2.65;1.15;;;13.20;58.00;;;;;;6181622;28;20422;-78
2021/01/22 08:38:13;;;;;;;2.40;1.00;;;13.20;58.00;;;;;;6182325;28;20054;-78
2021/01/22 08:41:24;;;;;;;3.75;1.10;;;13.20;57.80;;;;;;6181197;28;20408;-78
2021/01/22 08:44:25;;;;;;;5.05;1.20;;;13.30;58.30;;;;;;6183896;28;20487;-78
2021/01/22 08:47:29;;;;;;;3.55;0.95;;;13.20;58.00;;;;;;6182831;28;20126;-79
2021/01/22 08:50:31;;;;;;;3.70;0.95;;;13.20;58.40;;;;;;6192254;28;20046;-77
2021/01/22 08:53:33;;;;;;;7.90;1.33;;;13.20;58.00;;;;;;6203306;28;20054;-78
2021/01/22 08:56:35;;;;;;;5.05;1.85;;;13.30;58.30;;;;;;6189782;28;20063;-77
2021/01/22 08:59:47;;;;;;;3.67;2.17;;;13.30;58.80;;;;;;6191553;28;20051;-76
2021/01/22 09:02:49;;;;;;;3.00;1.20;;;13.40;59.70;;;;;;6189245;28;20070;-77
2021/01/22 09:05:52;;;;;;;8.48;2.08;;;13.30;61.20;;;;;;6179836;28;20114;-76
2021/01/22 09:08:54;;;;;;;2.97;1.20;;;13.30;61.60;;;;;;6181186;28;20077;-79
2021/01/22 09:11:55;;;;;;;5.20;1.40;;;13.10;61.80;;;;;;6182916;28;20178;-78
2021/01/22 09:14:59;;;;;;;4.35;1.73;;;13.10;62.10;;;;;;6180950;28;20053;-77
2021/01/22 09:18:00;;;;;;;4.15;0.90;;;13.00;62.30;;;;;;6182455;28;20051;-79
2021/01/22 09:21:04;;;;;;;3.63;1.15;;;13.00;62.70;;;;;;6183182;28;20469;-78
2021/01/22 09:24:06;;;;;;;2.88;0.98;;;13.00;62.60;;;;;;6182421;28;20051;-78
2021/01/22 09:27:07;;;;;;;3.78;2.00;;;13.00;62.30;;;;;;6181957;28;20078;-77
2021/01/22 09:30:11;;;;;;;3.67;1.67;;;13.10;62.30;;;;;;6182242;28;20125;-78
2021/01/22 09:33:12;;;;;;;6.50;1.50;;;13.20;62.40;;;;;;6183896;28;20053;-79
2021/01/22 09:36:14;;;;;;;2.88;2.00;;;13.30;62.20;;;;;;6180652;28;20130;-77
2021/01/22 09:39:15;;;;;;;1.45;1.08;;;13.30;61.50;;;;;;6180757;28;20133;-77
2021/01/22 09:42:17;;;;;;;3.00;1.23;;;13.40;60.90;;;;;;6181328;28;20043;-78
2021/01/22 09:45:18;;;;;;;4.25;1.13;;;13.40;61.30;;;;;;6183696;28;20051;-78
2021/01/22 09:48:19;;;;;;;2.40;1.30;;;13.40;62.70;;;;;;6181339;28;20428;-77
2021/01/22 09:51:22;;;;;;;3.92;1.10;;;13.30;61.30;;;;;;6182003;28;20046;-78
2021/01/22 09:54:23;;;;;;;3.28;1.30;;;13.30;60.90;;;;;;6182510;28;20508;-78
2021/01/22 09:57:24;;;;;;;3.30;1.42;;;13.40;60.30;;;;;;6184306;28;20134;-78
2021/01/22 10:00:26;;;;;;;3.40;0.73;;;13.40;60.50;;;;;;6180995;28;20074;-79
2021/01/22 10:03:27;;;;;;;5.43;1.35;;;13.50;61.00;;;;;;6181356;28;20471;-76
2021/01/22 10:06:30;;;;;;;4.20;1.77;;;13.50;62.40;;;;;;6178074;28;20046;-80
2021/01/22 10:09:31;;;;;;;8.35;3.90;;;13.40;63.20;;;;;;6180881;28;20051;-78
2021/01/22 10:12:33;;;;;;;4.38;0.90;;;13.30;64.40;;;;;;6197376;28;20173;-77
2021/01/22 10:15:34;;;;;;;4.38;1.40;;;13.20;65.50;;;;;;6190536;28;20046;-78
2021/01/22 10:18:35;;;;;;;2.22;1.25;;;13.10;67.40;;;;;;6201885;28;20077;-77
2021/01/22 10:21:38;;;;;;;2.97;1.48;;;12.80;69.30;;;;;;6206155;28;20065;-78
2021/01/22 10:24:41;;;;;;;6.00;2.80;;;12.70;70.50;;;;;;6197273;28;20050;-78
2021/01/22 10:27:42;;;;;;;4.28;1.20;;;12.50;71.00;;;;;;6205381;28;20050;-78
2021/01/22 10:30:44;;;;;;;2.75;0.88;;;12.40;72.30;;;;;;6206465;28;20116;-78
2021/01/22 10:33:46;;;;;;;2.08;1.25;;;12.30;72.10;;;;;;6200709;28;20114;-78
2021/01/22 10:36:48;;;;;;;2.63;1.10;;;12.30;71.70;;;;;;6201361;28;20055;-77
2021/01/22 10:39:49;;;;;;;1.63;1.17;;;12.40;71.50;;;;;;6201954;28;20050;-76
2021/01/22 10:42:51;;;;;;;1.50;1.40;;;12.50;69.30;;;;;;6197024;28;20096;-77
2021/01/22 10:45:52;;;;;;;1.35;1.23;;;12.70;67.80;;;;;;6194973;28;20183;-78
2021/01/22 10:48:53;;;;;;;3.13;1.40;;;12.90;66.60;;;;;;6194856;28;20453;-78
2021/01/22 10:51:55;;;;;;;5.05;1.60;;;13.20;64.80;;;;;;6190736;28;20508;-77
2021/01/22 10:54:57;;;;;;;2.65;1.50;;;13.40;63.70;;;;;;6197121;28;20125;-77
2021/01/22 10:57:58;;;;;;;7.35;1.52;;;13.50;62.90;;;;;;6199513;28;20133;-78
2021/01/22 11:01:00;;;;;;;1.42;1.15;;;13.60;63.60;;;;;;6191767;28;20153;-77
2021/01/22 11:04:01;;;;;;;1.27;1.10;;;13.80;62.20;;;;;;6195767;28;20053;-78
2021/01/22 11:07:03;;;;;;;1.05;0.93;;;13.90;61.90;;;;;;6200993;28;20517;-78
2021/01/22 11:10:06;;;;;;;0.80;0.80;;;14.00;62.00;;;;;;6198265;28;20064;-78
2021/01/22 11:13:07;;;;;;;2.45;1.20;;;14.10;62.00;;;;;;6197504;28;20520;-78
2021/01/22 11:16:09;;;;;;;3.58;1.17;;;14.30;60.80;;;;;;6199478;28;20127;-78
2021/01/22 11:19:10;;;;;;;3.38;1.15;;;14.40;59.80;;;;;;6196520;28;20086;-77
2021/01/22 11:22:12;;;;;;;1.42;1.27;;;14.50;60.50;;;;;;6204498;28;20124;-78
2021/01/22 11:25:15;;;;;;;2.13;1.23;;;14.60;59.50;;;;;;6196489;28;20202;-78
2021/01/22 11:28:16;;;;;;;2.17;1.35;;;14.50;60.30;;;;;;6198155;28;20134;-78
2021/01/22 11:31:18;;;;;;;1.70;1.23;;;14.40;60.80;;;;;;6202686;28;20145;-78
2021/01/22 11:34:19;;;;;;;5.25;4.75;;;14.30;60.90;;;;;;6197840;28;20069;-77
2021/01/22 11:37:21;;;;;;;2.50;1.70;;;14.20;61.70;;;;;;6186271;28;20116;-78
2021/01/22 11:40:24;;;;;;;1.23;0.90;;;13.70;62.90;;;;;;6193950;28;20037;-78
2021/01/22 11:43:25;;;;;;;1.40;1.10;;;12.80;64.50;;;;;;6193360;28;20408;-77
2021/01/22 11:46:27;;;;;;;3.00;1.17;;;12.00;66.90;;;;;;6197057;28;20055;-77
2021/01/22 11:49:28;;;;;;;2.55;2.30;;;11.30;68.50;;;;;;6197853;28;20153;-78
2021/01/22 11:52:30;;;;;;;2.10;1.88;;;10.70;69.80;;;;;;6200612;28;20046;-79
2021/01/22 11:55:32;;;;;;;0.95;0.90;;;10.30;70.60;;;;;;6188780;28;20141;-77
2021/01/22 11:58:33;;;;;;;2.75;0.88;;;9.90;71.80;;;;;;6191587;28;20102;-77
2021/01/22 12:01:35;;;;;;;2.95;1.15;;;9.40;72.80;;;;;;6200216;28;20466;-78
2021/01/22 12:04:36;;;;;;;5.97;5.47;;;9.10;73.60;;;;;;6205770;28;20496;-78
2021/01/22 12:07:38;;;;;;;1.15;0.60;;;8.70;74.40;;;;;;6207582;28;20133;-77
2021/01/22 12:10:39;;;;;;;1.67;1.10;;;8.30;75.80;;;;;;6217793;28;20034;-76
2021/01/22 12:13:41;;;;;;;1.15;0.70;;;8.10;77.80;;;;;;6209062;28;20031;-77
2021/01/22 12:16:42;;;;;;;1.23;1.20;;;8.00;79.20;;;;;;6222014;28;20082;-75
2021/01/22 12:19:43;;;;;;;1.00;0.88;;;7.70;79.30;;;;;;6227849;28;20045;-75
2021/01/22 12:22:45;;;;;;;1.23;0.68;;;7.50;80.50;;;;;;6233177;28;20045;-75
2021/01/22 12:25:47;;;;;;;1.13;0.60;;;7.50;81.40;;;;;;6224878;28;20094;-75
2021/01/22 12:28:49;;;;;;;0.50;0.50;;;7.50;81.10;;;;;;6222388;28;20114;-75
2021/01/22 12:31:50;;;;;;;1.35;0.90;;;7.40;80.50;;;;;;6225654;28;20058;-75
2021/01/22 12:34:53;;;;;;;1.13;0.88;;;7.40;81.10;;;;;;6222765;28;20027;-75
2021/01/22 12:37:55;;;;;;;0.90;0.88;;;7.20;82.10;;;;;;6216370;28;20519;-76
2021/01/22 12:40:56;;;;;;;0.70;0.70;;;7.10;83.20;;;;;;6203701;28;20049;-76
2021/01/22 12:43:58;;;;;;;1.10;1.08;;;7.00;84.00;;;;;;6200758;28;20119;-76
2021/01/22 12:46:59;;;;;;;1.92;1.23;;;6.90;83.90;;;;;;6192200;28;20401;-76
2021/01/22 12:50:00;;;;;;;2.50;1.00;;;6.90;84.50;;;;;;6201669;28;20090;-76
2021/01/22 12:53:04;;;;;;;0.88;0.88;;;6.90;84.40;;;;;;6209474;28;20115;-75
2021/01/22 12:56:06;;;;;;;2.38;0.85;;;6.80;84.30;;;;;;6217639;28;20106;-76
2021/01/22 12:59:07;;;;;;;0.85;0.85;;;6.60;84.50;;;;;;6220091;28;20190;-76
2021/01/22 13:02:08;;;;;;;1.15;0.80;;;6.40;86.10;;;;;;6202677;28;20073;-76
2021/01/22 13:05:12;;;;;;;0.80;0.80;;;6.40;88.30;;;;;;6201812;28;20058;-76
2021/01/22 13:08:14;;;;;;;1.55;1.45;;;6.40;89.50;;;;;;6192258;28;20490;-76
2021/01/22 13:11:15;;;;;;;1.20;1.00;;;6.30;90.00;;;;;;6197553;28;20046;-77
2021/01/22 13:14:17;;;;;;;0.80;0.75;;;6.30;90.30;;;;;;6197854;28;20078;-77
2021/01/22 13:17:18;;;;;;;3.85;1.58;;;6.20;90.60;;;;;;6193948;28;20459;-78
2021/01/22 13:20:19;;;;;;;0.70;0.70;;;6.10;90.50;;;;;;6200708;28;20412;-77
2021/01/22 13:23:22;;;;;;;3.50;1.00;;;6.00;91.30;;;;;;6193542;28;20604;-77
2021/01/22 13:26:23;;;;;;;2.22;1.50;;;5.70;92.20;;;;;;6208032;28;20063;-77
2021/01/22 13:29:24;;;;;;;1.35;1.10;;;5.60;92.90;;;;;;6208052;28;20153;-78
2021/01/22 13:32:26;;;;;;;3.60;1.38;;;5.40;93.70;;;;;;6205293;28;20094;-77
2021/01/22 13:35:27;;;;;;;1.95;1.55;;;5.30;94.40;;;;;;6190734;28;20042;-78
2021/01/22 13:38:29;;;;;;;2.03;1.40;;;5.20;95.00;;;;;;6201542;28;20042;-77
2021/01/22 13:41:31;;;;;;;2.58;1.70;;;5.20;95.90;;;;;;6196743;28;20500;-77
2021/01/22 13:44:32;;;;;;;1.80;1.52;;;5.20;96.70;;;;;;6199198;28;20133;-78
2021/01/22 13:47:33;;;;;;;3.85;2.35;;;5.20;97.30;;;;;;6201408;28;20125;-78
2021/01/22 13:50:35;;;;;;;2.80;2.15;;;5.20;96.90;;;;;;6199684;28;20038;-76
2021/01/22 13:53:37;;;;;;;3.67;3.30;;;5.00;97.50;;;;;;6195658;28;20421;-79
2021/01/22 13:56:38;;;;;;;4.00;3.70;;;5.00;98.20;;;;;;6204018;28;20074;-78
2021/01/22 13:59:40;;;;;;;3.47;3.17;;;5.10;99.10;;;;;;6205862;28;20105;-78
2021/01/22 14:02:41;;;;;;;3.85;3.40;;;5.20;99.60;;;;;;6204663;28;20078;-78
2021/01/22 14:05:44;;;;;;;5.45;4.18;;;5.20;99.90;;;;;;6205101;28;20459;-78
2021/01/22 14:08:46;;;;;;;5.63;5.00;;;5.30;99.90;;;;;;6200697;28;20050;-79
2021/01/22 14:11:48;;;;;;;5.15;4.65;;;5.20;99.90;;;;;;6205681;28;20057;-78
2021/01/22 14:14:49;;;;;;;5.70;5.05;;;5.10;99.90;;;;;;6200290;28;20081;-78
2021/01/22 14:17:50;;;;;;;8.13;5.88;;;5.00;99.90;;;;;;6201136;28;20050;-79
2021/01/22 14:20:51;;;;;;;9.70;8.63;;;4.90;99.90;;;;;;6197896;28;20104;-79
2021/01/22 14:23:53;;;;;;;9.15;6.97;;;4.90;99.90;;;;;;6193829;28;20174;-79
2021/01/22 14:26:58;;;;;;;8.82;6.75;;;5.00;99.90;;;;;;6190208;28;20046;-78
2021/01/22 14:29:59;;;;;;;10.20;7.43;;;5.10;99.90;;;;;;6191928;28;20089;-78
2021/01/22 14:33:00;;;;;;;11.70;8.40;;;5.10;99.90;;;;;;6196797;28;20073;-78
2021/01/22 14:36:02;;;;;;;13.80;9.30;;;5.20;99.90;;;;;;6197692;28;20507;-79
2021/01/22 14:39:05;;;;;;;12.60;8.13;;;5.30;99.90;;;;;;6202177;28;20060;-78
2021/01/22 14:42:08;;;;;;;12.77;8.27;;;5.40;99.90;;;;;;6198351;28;20133;-78
2021/01/22 14:45:10;;;;;;;9.80;8.13;;;5.00;99.90;;;;;;6200316;28;20592;-79
2021/01/22 14:48:11;;;;;;;13.00;9.50;;;4.80;99.90;;;;;;6196269;28;20090;-78
2021/01/22 14:51:13;;;;;;;13.57;9.23;;;4.80;99.90;;;;;;6194657;28;20169;-79
2021/01/22 14:54:15;;;;;;;8.85;6.40;;;4.80;99.90;;;;;;6198329;28;20567;-79
2021/01/22 14:57:16;;;;;;;17.15;7.68;;;4.80;99.90;;;;;;6194755;28;20058;-79
2021/01/22 15:00:19;;;;;;;8.73;7.10;;;4.80;99.90;;;;;;6188598;28;20125;-79
2021/01/22 15:03:22;;;;;;;7.22;4.80;;;4.80;99.90;;;;;;6199760;28;20097;-79
2021/01/22 15:06:23;;;;;;;9.15;5.13;;;4.70;99.90;;;;;;6193129;28;20096;-79
2021/01/22 15:09:25;;;;;;;13.73;5.18;;;4.60;99.90;;;;;;6195396;28;20177;-78
2021/01/22 15:12:27;;;;;;;12.07;5.82;;;4.60;99.90;;;;;;6195391;28;20049;-80
2021/01/22 15:15:28;;;;;;;17.45;7.53;;;4.70;99.90;;;;;;6191696;28;20100;-79
2021/01/22 15:18:30;;;;;;;12.05;6.28;;;4.70;99.90;;;;;;6193882;28;20066;-79
2021/01/22 15:21:31;;;;;;;7.63;5.85;;;4.80;99.90;;;;;;6193393;28;20055;-80
2021/01/22 15:24:34;;;;;;;13.05;7.97;;;4.70;99.90;;;;;;6195267;28;20126;-78
2021/01/22 15:27:36;;;;;;;9.32;6.10;;;4.60;99.90;;;;;;6193451;28;20152;-79
2021/01/22 15:30:37;;;;;;;9.57;6.63;;;4.50;99.90;;;;;;6197649;28;20128;-79
2021/01/22 15:33:38;;;;;;;8.05;5.72;;;4.60;99.90;;;;;;6186706;28;20047;-79
2021/01/22 15:36:41;;;;;;;12.32;5.65;;;4.60;99.90;;;;;;6197297;28;20479;-79
2021/01/22 15:39:44;;;;;;;10.18;5.45;;;4.60;99.90;;;;;;6195165;28;20058;-80
2021/01/22 15:42:45;;;;;;;8.32;5.68;;;4.60;99.90;;;;;;6200172;28;20051;-79
2021/01/22 15:45:47;;;;;;;13.02;5.95;;;4.60;99.90;;;;;;6199577;28;20052;-80
2021/01/22 15:48:48;;;;;;;7.82;4.78;;;4.70;99.90;;;;;;6200310;28;20043;-78
2021/01/22 15:51:49;;;;;;;15.13;6.60;;;4.60;99.90;;;;;;6226349;28;20046;-78
2021/01/22 15:54:51;;;;;;;16.85;6.93;;;4.70;99.90;;;;;;6214969;28;20047;-78
2021/01/22 15:57:53;;;;;;;14.63;7.05;;;4.80;99.90;;;;;;6201988;28;20522;-79
2021/01/22 16:00:54;;;;;;;13.40;7.40;;;4.90;99.90;;;;;;6202615;28;20051;-79
2021/01/22 16:03:55;;;;;;;9.73;6.47;;;4.80;99.90;;;;;;6202136;28;20082;-80
2021/01/22 16:06:57;;;;;;;17.27;8.02;;;4.80;99.90;;;;;;6197995;28;20125;-77